Terminal Aerodrome Forecast
Issued by NWS

Home | Current Version | Previous Version | Text Only | Print | Product List | Glossary On
Versions: 1 2 3 4 5 6 7 8 9 10 11 12 13
498
FTUS45 KRIW 232333
TAFRKS
TAF
KRKS 232333Z 2400/2424 02017KT 2SM -SN SCT012 OVC020
     FM240600 35013KT 3SM -SN OVC020
     FM241600 30014KT P6SM VCSH OVC025
     FM242200 27016KT P6SM SCT025 BKN060=

USA.gov is the U.S. government's official web portal to all federal, state and local government web resources and services.